sensor_id;sensor_type;location;lat;lon;timestamp;temperature;humidity
12967;DHT22;6548;49.996;8.238;2023-01-28T00:01:13;3.50;99.90
12967;DHT22;6548;49.996;8.238;2023-01-28T00:03:39;3.50;99.90
12967;DHT22;6548;49.996;8.238;2023-01-28T00:06:07;3.50;99.90
12967;DHT22;6548;49.996;8.238;2023-01-28T00:08:33;3.50;99.90
12967;DHT22;6548;49.996;8.238;2023-01-28T00:11:00;3.50;99.90
12967;DHT22;6548;49.996;8.238;2023-01-28T00:13:26;3.50;99.90
12967;DHT22;6548;49.996;8.238;2023-01-28T00:16:00;3.40;99.90
12967;DHT22;6548;49.996;8.238;2023-01-28T00:18:29;3.40;99.90
12967;DHT22;6548;49.996;8.238;2023-01-28T00:21:08;3.40;99.90
12967;DHT22;6548;49.996;8.238;2023-01-28T00:23:36;3.40;99.90
12967;DHT22;6548;49.996;8.238;2023-01-28T00:26:04;3.40;99.90
12967;DHT22;6548;49.996;8.238;2023-01-28T00:28:31;3.30;99.90
12967;DHT22;6548;49.996;8.238;2023-01-28T00:30:56;3.30;99.90
12967;DHT22;6548;49.996;8.238;2023-01-28T00:33:22;3.40;99.90
12967;DHT22;6548;49.996;8.238;2023-01-28T00:35:59;3.40;99.90
12967;DHT22;6548;49.996;8.238;2023-01-28T00:38:26;3.40;99.90
12967;DHT22;6548;49.996;8.238;2023-01-28T00:40:52;3.30;99.90
12967;DHT22;6548;49.996;8.238;2023-01-28T00:43:17;3.30;99.90
12967;DHT22;6548;49.996;8.238;2023-01-28T00:45:43;3.30;99.90
12967;DHT22;6548;49.996;8.238;2023-01-28T00:48:08;3.20;99.90
12967;DHT22;6548;49.996;8.238;2023-01-28T00:50:34;3.30;99.90
12967;DHT22;6548;49.996;8.238;2023-01-28T00:53:00;3.20;99.90
12967;DHT22;6548;49.996;8.238;2023-01-28T00:55:25;3.20;99.90
12967;DHT22;6548;49.996;8.238;2023-01-28T00:57:52;3.20;99.90
12967;DHT22;6548;49.996;8.238;2023-01-28T01:00:18;3.20;99.90
12967;DHT22;6548;49.996;8.238;2023-01-28T01:02:51;3.20;99.90
12967;DHT22;6548;49.996;8.238;2023-01-28T01:05:17;3.20;99.90
12967;DHT22;6548;49.996;8.238;2023-01-28T01:07:43;3.20;99.90
12967;DHT22;6548;49.996;8.238;2023-01-28T01:10:17;3.20;99.90
12967;DHT22;6548;49.996;8.238;2023-01-28T01:12:45;3.20;99.90
12967;DHT22;6548;49.996;8.238;2023-01-28T01:15:11;3.20;99.90
12967;DHT22;6548;49.996;8.238;2023-01-28T01:17:38;3.20;99.90
12967;DHT22;6548;49.996;8.238;2023-01-28T01:20:06;3.30;99.90
12967;DHT22;6548;49.996;8.238;2023-01-28T01:22:33;3.20;99.90
12967;DHT22;6548;49.996;8.238;2023-01-28T01:24:59;3.10;99.90
12967;DHT22;6548;49.996;8.238;2023-01-28T01:27:25;3.20;99.90
12967;DHT22;6548;49.996;8.238;2023-01-28T01:29:50;3.20;99.90
12967;DHT22;6548;49.996;8.238;2023-01-28T01:32:16;3.20;99.90
12967;DHT22;6548;49.996;8.238;2023-01-28T01:34:43;3.20;99.90
12967;DHT22;6548;49.996;8.238;2023-01-28T01:37:08;3.20;99.90
12967;DHT22;6548;49.996;8.238;2023-01-28T01:39:35;3.20;99.90
12967;DHT22;6548;49.996;8.238;2023-01-28T01:42:00;3.20;99.90
12967;DHT22;6548;49.996;8.238;2023-01-28T01:45:04;3.20;99.90
12967;DHT22;6548;49.996;8.238;2023-01-28T01:47:38;3.30;99.90
12967;DHT22;6548;49.996;8.238;2023-01-28T01:50:31;3.20;99.90
12967;DHT22;6548;49.996;8.238;2023-01-28T01:53:05;3.20;99.90
12967;DHT22;6548;49.996;8.238;2023-01-28T01:55:34;3.10;99.90
12967;DHT22;6548;49.996;8.238;2023-01-28T01:58:05;3.20;99.90
12967;DHT22;6548;49.996;8.238;2023-01-28T02:00:31;3.10;99.90
12967;DHT22;6548;49.996;8.238;2023-01-28T02:02:57;3.10;99.90
12967;DHT22;6548;49.996;8.238;2023-01-28T02:05:23;3.00;99.90
12967;DHT22;6548;49.996;8.238;2023-01-28T02:07:52;3.00;99.90
12967;DHT22;6548;49.996;8.238;2023-01-28T02:10:20;3.00;99.90
12967;DHT22;6548;49.996;8.238;2023-01-28T02:12:53;3.00;99.90
12967;DHT22;6548;49.996;8.238;2023-01-28T02:15:23;3.00;99.90
12967;DHT22;6548;49.996;8.238;2023-01-28T02:17:49;3.00;99.90
12967;DHT22;6548;49.996;8.238;2023-01-28T02:20:22;3.00;99.90
12967;DHT22;6548;49.996;8.238;2023-01-28T02:31:24;3.00;99.90
12967;DHT22;6548;49.996;8.238;2023-01-28T02:36:53;3.00;99.90
12967;DHT22;6548;49.996;8.238;2023-01-28T02:39:27;3.00;99.90
12967;DHT22;6548;49.996;8.238;2023-01-28T02:42:16;3.00;99.90
12967;DHT22;6548;49.996;8.238;2023-01-28T02:44:43;3.00;99.90
12967;DHT22;6548;49.996;8.238;2023-01-28T02:47:10;3.00;99.90
12967;DHT22;6548;49.996;8.238;2023-01-28T02:49:56;3.00;99.90
12967;DHT22;6548;49.996;8.238;2023-01-28T02:52:51;3.00;99.90
12967;DHT22;6548;49.996;8.238;2023-01-28T02:58:47;3.00;99.90
12967;DHT22;6548;49.996;8.238;2023-01-28T03:01:22;3.00;99.90
12967;DHT22;6548;49.996;8.238;2023-01-28T03:03:59;3.00;99.90
12967;DHT22;6548;49.996;8.238;2023-01-28T03:06:38;3.00;99.90
12967;DHT22;6548;49.996;8.238;2023-01-28T03:09:07;3.00;99.90
12967;DHT22;6548;49.996;8.238;2023-01-28T03:14:38;3.00;99.90
12967;DHT22;6548;49.996;8.238;2023-01-28T03:17:29;3.00;99.90
12967;DHT22;6548;49.996;8.238;2023-01-28T03:20:15;3.00;99.90
12967;DHT22;6548;49.996;8.238;2023-01-28T03:23:04;3.00;99.90
12967;DHT22;6548;49.996;8.238;2023-01-28T03:25:53;2.90;99.90
12967;DHT22;6548;49.996;8.238;2023-01-28T03:28:39;2.90;99.90
12967;DHT22;6548;49.996;8.238;2023-01-28T03:31:25;2.90;99.90
12967;DHT22;6548;49.996;8.238;2023-01-28T03:34:10;2.90;99.90
12967;DHT22;6548;49.996;8.238;2023-01-28T03:36:55;2.90;99.90
12967;DHT22;6548;49.996;8.238;2023-01-28T03:39:24;2.90;99.90
12967;DHT22;6548;49.996;8.238;2023-01-28T03:42:02;2.90;99.90
12967;DHT22;6548;49.996;8.238;2023-01-28T03:44:29;2.90;99.90
12967;DHT22;6548;49.996;8.238;2023-01-28T03:47:13;2.90;99.90
12967;DHT22;6548;49.996;8.238;2023-01-28T03:49:43;2.90;99.90
12967;DHT22;6548;49.996;8.238;2023-01-28T03:52:13;3.00;99.90
12967;DHT22;6548;49.996;8.238;2023-01-28T03:54:39;3.00;99.90
12967;DHT22;6548;49.996;8.238;2023-01-28T03:57:05;2.90;99.90
12967;DHT22;6548;49.996;8.238;2023-01-28T03:59:34;3.00;99.90
12967;DHT22;6548;49.996;8.238;2023-01-28T04:02:00;3.00;99.90
12967;DHT22;6548;49.996;8.238;2023-01-28T04:04:28;3.00;99.90
12967;DHT22;6548;49.996;8.238;2023-01-28T04:06:55;3.00;99.90
12967;DHT22;6548;49.996;8.238;2023-01-28T04:09:21;3.00;99.90
12967;DHT22;6548;49.996;8.238;2023-01-28T04:11:47;3.00;99.90
12967;DHT22;6548;49.996;8.238;2023-01-28T04:14:13;3.00;99.90
12967;DHT22;6548;49.996;8.238;2023-01-28T04:16:40;3.50;99.90
12967;DHT22;6548;49.996;8.238;2023-01-28T04:19:06;2.90;99.90
12967;DHT22;6548;49.996;8.238;2023-01-28T04:21:32;2.90;99.90
12967;DHT22;6548;49.996;8.238;2023-01-28T04:23:57;3.00;99.90
12967;DHT22;6548;49.996;8.238;2023-01-28T04:26:23;3.00;99.90
12967;DHT22;6548;49.996;8.238;2023-01-28T04:28:48;3.10;99.90
12967;DHT22;6548;49.996;8.238;2023-01-28T04:31:14;3.00;99.90
12967;DHT22;6548;49.996;8.238;2023-01-28T04:33:39;2.20;99.90
12967;DHT22;6548;49.996;8.238;2023-01-28T04:36:05;3.10;99.90
12967;DHT22;6548;49.996;8.238;2023-01-28T04:38:31;3.10;99.90
12967;DHT22;6548;49.996;8.238;2023-01-28T04:40:56;3.00;99.90
12967;DHT22;6548;49.996;8.238;2023-01-28T04:43:22;3.00;99.90
12967;DHT22;6548;49.996;8.238;2023-01-28T04:45:48;3.00;99.90
12967;DHT22;6548;49.996;8.238;2023-01-28T04:48:14;3.00;99.90
12967;DHT22;6548;49.996;8.238;2023-01-28T04:50:41;3.00;99.90
12967;DHT22;6548;49.996;8.238;2023-01-28T04:53:07;3.70;99.90
12967;DHT22;6548;49.996;8.238;2023-01-28T04:55:32;3.00;99.90
12967;DHT22;6548;49.996;8.238;2023-01-28T04:57:58;2.90;99.90
12967;DHT22;6548;49.996;8.238;2023-01-28T05:00:24;2.90;99.90
12967;DHT22;6548;49.996;8.238;2023-01-28T05:02:49;3.00;99.90
12967;DHT22;6548;49.996;8.238;2023-01-28T05:05:15;2.90;99.90
12967;DHT22;6548;49.996;8.238;2023-01-28T05:07:40;2.90;99.90
12967;DHT22;6548;49.996;8.238;2023-01-28T05:10:06;2.90;99.90
12967;DHT22;6548;49.996;8.238;2023-01-28T05:12:32;2.90;99.90
12967;DHT22;6548;49.996;8.238;2023-01-28T05:14:59;2.90;99.90
12967;DHT22;6548;49.996;8.238;2023-01-28T05:17:28;2.80;99.90
12967;DHT22;6548;49.996;8.238;2023-01-28T05:19:54;2.80;99.90
12967;DHT22;6548;49.996;8.238;2023-01-28T05:22:19;2.80;99.90
12967;DHT22;6548;49.996;8.238;2023-01-28T05:24:45;2.80;99.90
12967;DHT22;6548;49.996;8.238;2023-01-28T05:27:11;2.80;99.90
12967;DHT22;6548;49.996;8.238;2023-01-28T05:29:36;2.80;99.90
12967;DHT22;6548;49.996;8.238;2023-01-28T05:32:02;2.80;99.90
12967;DHT22;6548;49.996;8.238;2023-01-28T05:34:29;2.90;99.90
12967;DHT22;6548;49.996;8.238;2023-01-28T05:36:54;2.90;99.90
12967;DHT22;6548;49.996;8.238;2023-01-28T05:39:20;2.80;99.90
12967;DHT22;6548;49.996;8.238;2023-01-28T05:41:45;2.90;99.90
12967;DHT22;6548;49.996;8.238;2023-01-28T05:44:11;2.90;99.90
12967;DHT22;6548;49.996;8.238;2023-01-28T05:46:36;2.80;99.90
12967;DHT22;6548;49.996;8.238;2023-01-28T05:49:02;2.90;99.90
12967;DHT22;6548;49.996;8.238;2023-01-28T05:51:27;2.90;99.90
12967;DHT22;6548;49.996;8.238;2023-01-28T05:53:53;2.90;99.90
12967;DHT22;6548;49.996;8.238;2023-01-28T05:56:18;2.90;99.90
12967;DHT22;6548;49.996;8.238;2023-01-28T05:58:44;2.80;99.90
12967;DHT22;6548;49.996;8.238;2023-01-28T06:01:09;2.80;99.90
12967;DHT22;6548;49.996;8.238;2023-01-28T06:03:35;2.80;99.90
12967;DHT22;6548;49.996;8.238;2023-01-28T06:06:01;2.80;99.90
12967;DHT22;6548;49.996;8.238;2023-01-28T06:08:26;3.70;99.90
12967;DHT22;6548;49.996;8.238;2023-01-28T06:10:52;2.80;99.90
12967;DHT22;6548;49.996;8.238;2023-01-28T06:13:17;2.80;99.90
12967;DHT22;6548;49.996;8.238;2023-01-28T06:15:43;2.80;99.90
12967;DHT22;6548;49.996;8.238;2023-01-28T06:18:08;2.80;99.90
12967;DHT22;6548;49.996;8.238;2023-01-28T06:20:34;2.80;99.90
12967;DHT22;6548;49.996;8.238;2023-01-28T06:22:59;2.80;99.90
12967;DHT22;6548;49.996;8.238;2023-01-28T06:25:25;2.80;99.90
12967;DHT22;6548;49.996;8.238;2023-01-28T06:27:50;2.80;99.90
12967;DHT22;6548;49.996;8.238;2023-01-28T06:30:16;2.80;99.90
12967;DHT22;6548;49.996;8.238;2023-01-28T06:32:42;3.50;99.90
12967;DHT22;6548;49.996;8.238;2023-01-28T06:35:09;2.90;99.90
12967;DHT22;6548;49.996;8.238;2023-01-28T06:37:34;2.90;99.90
12967;DHT22;6548;49.996;8.238;2023-01-28T06:40:00;2.90;99.90
12967;DHT22;6548;49.996;8.238;2023-01-28T06:42:26;2.80;99.90
12967;DHT22;6548;49.996;8.238;2023-01-28T06:44:51;2.80;99.90
12967;DHT22;6548;49.996;8.238;2023-01-28T06:47:17;2.80;99.90
12967;DHT22;6548;49.996;8.238;2023-01-28T06:49:42;2.80;99.90
12967;DHT22;6548;49.996;8.238;2023-01-28T06:52:08;2.80;99.90
12967;DHT22;6548;49.996;8.238;2023-01-28T06:54:33;2.70;99.90
12967;DHT22;6548;49.996;8.238;2023-01-28T06:56:59;2.70;99.90
12967;DHT22;6548;49.996;8.238;2023-01-28T06:59:24;2.70;99.90
12967;DHT22;6548;49.996;8.238;2023-01-28T07:01:50;2.70;99.90
12967;DHT22;6548;49.996;8.238;2023-01-28T07:04:15;2.70;99.90
12967;DHT22;6548;49.996;8.238;2023-01-28T07:06:41;2.70;99.90
12967;DHT22;6548;49.996;8.238;2023-01-28T07:09:07;2.70;99.90
12967;DHT22;6548;49.996;8.238;2023-01-28T07:11:32;2.70;99.90
12967;DHT22;6548;49.996;8.238;2023-01-28T07:13:58;2.70;99.90
12967;DHT22;6548;49.996;8.238;2023-01-28T07:16:23;2.70;99.90
12967;DHT22;6548;49.996;8.238;2023-01-28T07:18:49;2.70;99.90
12967;DHT22;6548;49.996;8.238;2023-01-28T07:21:15;2.70;99.90
12967;DHT22;6548;49.996;8.238;2023-01-28T07:23:41;2.70;99.90
12967;DHT22;6548;49.996;8.238;2023-01-28T07:26:06;2.70;99.90
12967;DHT22;6548;49.996;8.238;2023-01-28T07:28:32;2.70;99.90
12967;DHT22;6548;49.996;8.238;2023-01-28T07:30:58;2.70;99.90
12967;DHT22;6548;49.996;8.238;2023-01-28T07:33:24;2.60;99.90
12967;DHT22;6548;49.996;8.238;2023-01-28T07:35:49;2.60;99.90
12967;DHT22;6548;49.996;8.238;2023-01-28T07:38:15;2.60;99.90
12967;DHT22;6548;49.996;8.238;2023-01-28T07:40:40;2.70;99.90
12967;DHT22;6548;49.996;8.238;2023-01-28T07:43:10;2.70;99.90
12967;DHT22;6548;49.996;8.238;2023-01-28T07:45:35;2.70;99.90
12967;DHT22;6548;49.996;8.238;2023-01-28T07:48:04;2.70;99.90
12967;DHT22;6548;49.996;8.238;2023-01-28T07:50:32;2.70;99.90
12967;DHT22;6548;49.996;8.238;2023-01-28T07:53:01;2.70;99.90
12967;DHT22;6548;49.996;8.238;2023-01-28T07:55:26;2.70;99.90
12967;DHT22;6548;49.996;8.238;2023-01-28T07:57:58;2.70;99.90
12967;DHT22;6548;49.996;8.238;2023-01-28T08:00:26;2.70;99.90
12967;DHT22;6548;49.996;8.238;2023-01-28T08:02:57;2.70;99.90
12967;DHT22;6548;49.996;8.238;2023-01-28T08:05:23;2.70;99.90
12967;DHT22;6548;49.996;8.238;2023-01-28T08:07:51;2.70;99.90
12967;DHT22;6548;49.996;8.238;2023-01-28T08:10:18;2.70;99.90
12967;DHT22;6548;49.996;8.238;2023-01-28T08:12:54;2.70;99.90
12967;DHT22;6548;49.996;8.238;2023-01-28T08:15:21;2.70;99.90
12967;DHT22;6548;49.996;8.238;2023-01-28T08:17:47;2.70;99.90
12967;DHT22;6548;49.996;8.238;2023-01-28T08:20:12;2.70;99.90
12967;DHT22;6548;49.996;8.238;2023-01-28T08:22:38;2.80;99.90
12967;DHT22;6548;49.996;8.238;2023-01-28T08:25:04;2.70;99.90
12967;DHT22;6548;49.996;8.238;2023-01-28T08:27:30;2.80;99.90
12967;DHT22;6548;49.996;8.238;2023-01-28T08:29:55;2.90;99.90
12967;DHT22;6548;49.996;8.238;2023-01-28T08:32:21;2.80;99.90
12967;DHT22;6548;49.996;8.238;2023-01-28T08:34:46;2.90;99.90
12967;DHT22;6548;49.996;8.238;2023-01-28T08:37:12;2.90;99.90
12967;DHT22;6548;49.996;8.238;2023-01-28T08:39:37;3.00;99.90
12967;DHT22;6548;49.996;8.238;2023-01-28T08:42:04;3.10;99.90
12967;DHT22;6548;49.996;8.238;2023-01-28T08:44:30;3.10;99.90
12967;DHT22;6548;49.996;8.238;2023-01-28T08:46:55;2.90;99.90
12967;DHT22;6548;49.996;8.238;2023-01-28T08:49:21;2.90;99.90
12967;DHT22;6548;49.996;8.238;2023-01-28T08:51:47;2.90;99.90
12967;DHT22;6548;49.996;8.238;2023-01-28T08:54:13;2.90;99.90
12967;DHT22;6548;49.996;8.238;2023-01-28T08:56:38;2.90;99.90
12967;DHT22;6548;49.996;8.238;2023-01-28T08:59:07;4.10;99.90
12967;DHT22;6548;49.996;8.238;2023-01-28T09:01:32;3.20;99.90
12967;DHT22;6548;49.996;8.238;2023-01-28T09:03:58;3.10;99.90
12967;DHT22;6548;49.996;8.238;2023-01-28T09:06:23;3.10;99.90
12967;DHT22;6548;49.996;8.238;2023-01-28T09:08:49;3.00;99.90
12967;DHT22;6548;49.996;8.238;2023-01-28T09:11:15;3.10;99.90
12967;DHT22;6548;49.996;8.238;2023-01-28T09:13:40;3.00;99.90
12967;DHT22;6548;49.996;8.238;2023-01-28T09:16:06;3.00;99.90
12967;DHT22;6548;49.996;8.238;2023-01-28T09:18:32;3.10;99.90
12967;DHT22;6548;49.996;8.238;2023-01-28T09:20:57;3.10;99.90
12967;DHT22;6548;49.996;8.238;2023-01-28T09:23:29;3.00;99.90
12967;DHT22;6548;49.996;8.238;2023-01-28T09:25:59;3.10;99.90
12967;DHT22;6548;49.996;8.238;2023-01-28T09:28:25;3.00;99.90
12967;DHT22;6548;49.996;8.238;2023-01-28T09:30:51;3.10;99.90
12967;DHT22;6548;49.996;8.238;2023-01-28T09:33:16;3.10;99.90
12967;DHT22;6548;49.996;8.238;2023-01-28T09:35:42;3.10;99.90
12967;DHT22;6548;49.996;8.238;2023-01-28T09:38:07;3.90;99.90
12967;DHT22;6548;49.996;8.238;2023-01-28T09:40:51;3.00;99.90
12967;DHT22;6548;49.996;8.238;2023-01-28T09:43:32;3.00;99.90
12967;DHT22;6548;49.996;8.238;2023-01-28T09:46:02;3.20;99.90
12967;DHT22;6548;49.996;8.238;2023-01-28T09:48:36;3.20;99.90
12967;DHT22;6548;49.996;8.238;2023-01-28T09:51:12;3.10;99.90
12967;DHT22;6548;49.996;8.238;2023-01-28T09:53:46;3.10;99.90
12967;DHT22;6548;49.996;8.238;2023-01-28T09:56:21;3.10;99.90
12967;DHT22;6548;49.996;8.238;2023-01-28T09:58:49;3.10;99.90
12967;DHT22;6548;49.996;8.238;2023-01-28T10:01:37;3.20;99.90
12967;DHT22;6548;49.996;8.238;2023-01-28T10:04:17;3.20;99.90
12967;DHT22;6548;49.996;8.238;2023-01-28T10:07:03;3.10;99.90
12967;DHT22;6548;49.996;8.238;2023-01-28T10:10:19;3.10;99.90
12967;DHT22;6548;49.996;8.238;2023-01-28T10:13:01;3.10;99.90
12967;DHT22;6548;49.996;8.238;2023-01-28T10:19:06;3.40;99.90
12967;DHT22;6548;49.996;8.238;2023-01-28T10:21:40;3.50;99.90
12967;DHT22;6548;49.996;8.238;2023-01-28T10:24:17;3.40;99.90
12967;DHT22;6548;49.996;8.238;2023-01-28T10:26:45;3.40;99.90
12967;DHT22;6548;49.996;8.238;2023-01-28T10:29:17;3.50;99.90
12967;DHT22;6548;49.996;8.238;2023-01-28T10:32:20;3.60;99.90
12967;DHT22;6548;49.996;8.238;2023-01-28T10:34:46;3.60;99.90
12967;DHT22;6548;49.996;8.238;2023-01-28T10:37:13;3.60;99.90
12967;DHT22;6548;49.996;8.238;2023-01-28T10:39:39;4.30;99.90
12967;DHT22;6548;49.996;8.238;2023-01-28T10:45:01;3.60;99.90
12967;DHT22;6548;49.996;8.238;2023-01-28T10:50:30;3.50;99.90
12967;DHT22;6548;49.996;8.238;2023-01-28T10:52:58;3.60;99.90
12967;DHT22;6548;49.996;8.238;2023-01-28T10:55:54;3.40;99.90
12967;DHT22;6548;49.996;8.238;2023-01-28T10:58:23;3.30;99.90
12967;DHT22;6548;49.996;8.238;2023-01-28T11:00:59;3.40;99.90
12967;DHT22;6548;49.996;8.238;2023-01-28T11:03:26;3.70;99.90
12967;DHT22;6548;49.996;8.238;2023-01-28T11:05:59;3.70;99.90
12967;DHT22;6548;49.996;8.238;2023-01-28T11:08:27;3.70;99.90
12967;DHT22;6548;49.996;8.238;2023-01-28T11:10:55;3.60;99.90
12967;DHT22;6548;49.996;8.238;2023-01-28T11:13:21;3.60;99.90
12967;DHT22;6548;49.996;8.238;2023-01-28T11:15:53;3.60;99.90
12967;DHT22;6548;49.996;8.238;2023-01-28T11:18:31;3.60;99.90
12967;DHT22;6548;49.996;8.238;2023-01-28T11:21:04;3.60;99.90
12967;DHT22;6548;49.996;8.238;2023-01-28T11:23:48;3.50;99.90
12967;DHT22;6548;49.996;8.238;2023-01-28T11:26:20;3.40;99.90
12967;DHT22;6548;49.996;8.238;2023-01-28T11:28:47;3.60;99.90
12967;DHT22;6548;49.996;8.238;2023-01-28T11:31:15;3.60;99.90
12967;DHT22;6548;49.996;8.238;2023-01-28T11:34:00;3.60;99.90
12967;DHT22;6548;49.996;8.238;2023-01-28T11:36:28;3.70;99.90
12967;DHT22;6548;49.996;8.238;2023-01-28T11:41:31;3.50;99.90
12967;DHT22;6548;49.996;8.238;2023-01-28T11:43:59;3.60;99.90
12967;DHT22;6548;49.996;8.238;2023-01-28T11:49:54;3.50;99.90
12967;DHT22;6548;49.996;8.238;2023-01-28T11:55:39;3.40;99.90
12967;DHT22;6548;49.996;8.238;2023-01-28T11:58:20;3.10;99.90
12967;DHT22;6548;49.996;8.238;2023-01-28T12:01:08;3.30;99.90
12967;DHT22;6548;49.996;8.238;2023-01-28T12:04:13;3.40;99.90
12967;DHT22;6548;49.996;8.238;2023-01-28T12:20:37;3.40;99.90
12967;DHT22;6548;49.996;8.238;2023-01-28T12:29:11;3.30;99.90
12967;DHT22;6548;49.996;8.238;2023-01-28T12:31:51;3.30;99.90
12967;DHT22;6548;49.996;8.238;2023-01-28T12:37:25;3.20;99.90
12967;DHT22;6548;49.996;8.238;2023-01-28T12:40:13;3.10;99.90
12967;DHT22;6548;49.996;8.238;2023-01-28T12:42:47;3.10;99.90
12967;DHT22;6548;49.996;8.238;2023-01-28T12:45:22;2.90;99.90
12967;DHT22;6548;49.996;8.238;2023-01-28T12:48:00;2.90;99.90
12967;DHT22;6548;49.996;8.238;2023-01-28T12:50:30;3.10;99.90
12967;DHT22;6548;49.996;8.238;2023-01-28T12:53:02;3.00;99.90
12967;DHT22;6548;49.996;8.238;2023-01-28T12:55:40;3.00;99.90
12967;DHT22;6548;49.996;8.238;2023-01-28T12:58:21;3.10;99.90
12967;DHT22;6548;49.996;8.238;2023-01-28T13:00:50;3.00;99.90
12967;DHT22;6548;49.996;8.238;2023-01-28T13:03:25;3.00;99.90
12967;DHT22;6548;49.996;8.238;2023-01-28T13:06:05;2.80;99.90
12967;DHT22;6548;49.996;8.238;2023-01-28T13:08:33;2.60;99.90
12967;DHT22;6548;49.996;8.238;2023-01-28T13:11:01;2.90;99.90
12967;DHT22;6548;49.996;8.238;2023-01-28T13:13:32;3.00;99.90
12967;DHT22;6548;49.996;8.238;2023-01-28T13:15:59;3.00;99.90
12967;DHT22;6548;49.996;8.238;2023-01-28T13:18:32;3.10;99.90
12967;DHT22;6548;49.996;8.238;2023-01-28T13:20:58;3.20;99.90
12967;DHT22;6548;49.996;8.238;2023-01-28T13:28:41;2.80;99.90
12967;DHT22;6548;49.996;8.238;2023-01-28T13:31:09;2.60;99.90
12967;DHT22;6548;49.996;8.238;2023-01-28T13:33:40;2.70;99.90
12967;DHT22;6548;49.996;8.238;2023-01-28T13:36:26;2.70;99.90
12967;DHT22;6548;49.996;8.238;2023-01-28T13:39:05;2.60;99.90
12967;DHT22;6548;49.996;8.238;2023-01-28T13:49:50;2.50;99.90
12967;DHT22;6548;49.996;8.238;2023-01-28T13:52:29;2.50;99.90
12967;DHT22;6548;49.996;8.238;2023-01-28T14:17:43;2.30;99.90
12967;DHT22;6548;49.996;8.238;2023-01-28T14:22:43;2.40;99.90
12967;DHT22;6548;49.996;8.238;2023-01-28T14:25:15;2.40;99.90
12967;DHT22;6548;49.996;8.238;2023-01-28T14:27:48;2.60;99.90
12967;DHT22;6548;49.996;8.238;2023-01-28T14:30:24;2.60;99.90
12967;DHT22;6548;49.996;8.238;2023-01-28T14:32:53;2.60;99.90
12967;DHT22;6548;49.996;8.238;2023-01-28T14:35:31;2.60;99.90
12967;DHT22;6548;49.996;8.238;2023-01-28T14:37:58;2.60;99.90
12967;DHT22;6548;49.996;8.238;2023-01-28T14:40:24;2.60;99.90
12967;DHT22;6548;49.996;8.238;2023-01-28T14:42:54;2.80;99.90
12967;DHT22;6548;49.996;8.238;2023-01-28T14:45:45;2.70;99.90
12967;DHT22;6548;49.996;8.238;2023-01-28T14:48:37;2.70;99.90
12967;DHT22;6548;49.996;8.238;2023-01-28T14:59:37;2.50;99.90
12967;DHT22;6548;49.996;8.238;2023-01-28T15:02:16;2.60;99.90
12967;DHT22;6548;49.996;8.238;2023-01-28T15:04:43;2.70;99.90
12967;DHT22;6548;49.996;8.238;2023-01-28T15:07:19;2.60;99.90
12967;DHT22;6548;49.996;8.238;2023-01-28T15:09:45;2.70;99.90
12967;DHT22;6548;49.996;8.238;2023-01-28T15:12:11;2.70;99.90
12967;DHT22;6548;49.996;8.238;2023-01-28T15:14:37;2.70;99.90
12967;DHT22;6548;49.996;8.238;2023-01-28T15:17:05;2.70;99.90
12967;DHT22;6548;49.996;8.238;2023-01-28T15:19:35;2.70;99.90
12967;DHT22;6548;49.996;8.238;2023-01-28T15:22:04;2.50;99.90
12967;DHT22;6548;49.996;8.238;2023-01-28T15:24:32;2.60;99.90
12967;DHT22;6548;49.996;8.238;2023-01-28T15:26:58;2.70;99.90
12967;DHT22;6548;49.996;8.238;2023-01-28T15:29:35;2.60;99.90
12967;DHT22;6548;49.996;8.238;2023-01-28T15:32:02;2.60;99.90
12967;DHT22;6548;49.996;8.238;2023-01-28T15:34:28;2.70;99.90
12967;DHT22;6548;49.996;8.238;2023-01-28T15:36:58;2.80;99.90
12967;DHT22;6548;49.996;8.238;2023-01-28T15:39:26;2.80;99.90
12967;DHT22;6548;49.996;8.238;2023-01-28T15:42:01;2.80;99.90
12967;DHT22;6548;49.996;8.238;2023-01-28T15:44:43;2.60;99.90
12967;DHT22;6548;49.996;8.238;2023-01-28T15:47:21;2.70;99.90
12967;DHT22;6548;49.996;8.238;2023-01-28T15:49:50;2.70;99.90
12967;DHT22;6548;49.996;8.238;2023-01-28T15:52:17;2.70;99.90
12967;DHT22;6548;49.996;8.238;2023-01-28T15:54:50;2.70;99.90
12967;DHT22;6548;49.996;8.238;2023-01-28T15:57:21;2.80;99.90
12967;DHT22;6548;49.996;8.238;2023-01-28T15:59:51;2.60;99.90
12967;DHT22;6548;49.996;8.238;2023-01-28T16:02:27;2.30;99.90
12967;DHT22;6548;49.996;8.238;2023-01-28T16:05:05;2.10;99.90
12967;DHT22;6548;49.996;8.238;2023-01-28T16:07:43;2.10;99.90
12967;DHT22;6548;49.996;8.238;2023-01-28T16:10:20;2.20;99.90
12967;DHT22;6548;49.996;8.238;2023-01-28T16:15:35;2.20;99.90
12967;DHT22;6548;49.996;8.238;2023-01-28T16:18:03;2.30;99.90
12967;DHT22;6548;49.996;8.238;2023-01-28T16:20:30;2.20;99.90
12967;DHT22;6548;49.996;8.238;2023-01-28T16:22:59;2.20;99.90
12967;DHT22;6548;49.996;8.238;2023-01-28T16:25:30;2.20;99.90
12967;DHT22;6548;49.996;8.238;2023-01-28T16:27:58;2.20;99.90
12967;DHT22;6548;49.996;8.238;2023-01-28T16:30:24;2.10;99.90
12967;DHT22;6548;49.996;8.238;2023-01-28T16:32:50;2.10;99.90
12967;DHT22;6548;49.996;8.238;2023-01-28T16:35:25;2.00;99.90
12967;DHT22;6548;49.996;8.238;2023-01-28T16:37:51;2.10;99.90
12967;DHT22;6548;49.996;8.238;2023-01-28T16:40:18;2.00;99.90
12967;DHT22;6548;49.996;8.238;2023-01-28T16:42:44;1.90;99.90
12967;DHT22;6548;49.996;8.238;2023-01-28T16:45:22;2.00;99.90
12967;DHT22;6548;49.996;8.238;2023-01-28T16:47:48;1.80;99.90
12967;DHT22;6548;49.996;8.238;2023-01-28T16:50:14;1.70;99.90
12967;DHT22;6548;49.996;8.238;2023-01-28T16:52:41;1.70;99.90
12967;DHT22;6548;49.996;8.238;2023-01-28T16:55:13;1.70;99.90
12967;DHT22;6548;49.996;8.238;2023-01-28T16:57:39;1.70;99.90
12967;DHT22;6548;49.996;8.238;2023-01-28T17:00:05;1.70;99.90
12967;DHT22;6548;49.996;8.238;2023-01-28T17:02:31;1.70;99.90
12967;DHT22;6548;49.996;8.238;2023-01-28T17:04:57;1.80;99.90
12967;DHT22;6548;49.996;8.238;2023-01-28T17:07:22;1.70;99.90
12967;DHT22;6548;49.996;8.238;2023-01-28T17:09:48;1.60;99.90
12967;DHT22;6548;49.996;8.238;2023-01-28T17:12:14;1.50;99.90
12967;DHT22;6548;49.996;8.238;2023-01-28T17:14:39;1.40;99.90
12967;DHT22;6548;49.996;8.238;2023-01-28T17:17:05;1.30;99.90
12967;DHT22;6548;49.996;8.238;2023-01-28T17:19:30;1.40;99.90
12967;DHT22;6548;49.996;8.238;2023-01-28T17:21:59;1.40;99.90
12967;DHT22;6548;49.996;8.238;2023-01-28T17:24:25;1.40;99.90
12967;DHT22;6548;49.996;8.238;2023-01-28T17:26:51;1.30;99.90
12967;DHT22;6548;49.996;8.238;2023-01-28T17:29:17;1.40;99.90
12967;DHT22;6548;49.996;8.238;2023-01-28T17:31:42;1.30;99.90
12967;DHT22;6548;49.996;8.238;2023-01-28T17:34:08;1.40;99.90
12967;DHT22;6548;49.996;8.238;2023-01-28T17:36:35;1.40;99.90
12967;DHT22;6548;49.996;8.238;2023-01-28T17:39:02;1.40;99.90
12967;DHT22;6548;49.996;8.238;2023-01-28T17:41:27;1.40;99.90
12967;DHT22;6548;49.996;8.238;2023-01-28T17:43:54;1.30;99.90
12967;DHT22;6548;49.996;8.238;2023-01-28T17:46:21;1.20;99.90
12967;DHT22;6548;49.996;8.238;2023-01-28T17:48:48;1.20;99.90
12967;DHT22;6548;49.996;8.238;2023-01-28T17:51:13;1.10;99.90
12967;DHT22;6548;49.996;8.238;2023-01-28T17:53:47;1.00;99.90
12967;DHT22;6548;49.996;8.238;2023-01-28T17:56:18;1.10;99.90
12967;DHT22;6548;49.996;8.238;2023-01-28T17:58:52;1.30;99.90
12967;DHT22;6548;49.996;8.238;2023-01-28T18:01:18;1.30;99.90
12967;DHT22;6548;49.996;8.238;2023-01-28T18:03:44;1.30;99.90
12967;DHT22;6548;49.996;8.238;2023-01-28T18:06:10;2.50;99.90
12967;DHT22;6548;49.996;8.238;2023-01-28T18:08:35;1.40;99.90